x

9449880 - Friday Harbor, Wa (frdw1) Weather Station

10:36 - Sat 27th Aug 2016 All times are PDT. -7 hours from GMT.

  • Wind
    7mph, 8mph gusts
  • Sea Temp 54°f
  • Ar Temp 58°f
  • Sea Pressure 1009.3mb
  • 9449880 - Friday Harbor, Wa
  • 9449880 - Friday Harbor, Wa

More Historic Weather Station data

Upgrade to MSW Pro to gain access to the past 30 days of data for over 8000 Wavebouys and Weather Stations around the globe.

Join Pro

Comparision Forecast

View Surf forecast
   
Sáb 08/27 10:36 7 8 mph 1009.3mb 54f 58f
10:30 6 8 mph 1009.4mb 54f 58f
10:24 7
mph
1009.2mb 54f 58f
10:18 7 8 mph 1009.2mb 54f 59f
10:12 7 8 mph 1009.1mb 54f 59f
10:06 6 7 mph 1009mb 54f 58f
10:00 5 6 mph 1009mb 55f 58f
9:36 3 5 mph 1008.8mb 55f 59f
9:30 2 5 mph 1008.8mb 54f 59f
9:24 3 6 mph 1008.6mb 54f 58f
9:18 3 6 mph 1008.5mb 54f 58f
9:12 3 6 mph 1008.4mb 54f 58f
9:06 3 6 mph 1008.4mb 54f 59f
9:00 1 3 mph 1008.4mb 54f 59f
8:36 3 6 mph 1008.4mb 54f 57f
8:30 5 8 mph 1008.3mb 54f 58f
8:24 6 8 mph 1008.2mb 54f 58f
8:18 5 7 mph 1008.3mb 54f 57f
8:12 5
mph
1008.2mb 54f 57f
8:06 3 6 mph 1008.2mb 54f 56f
8:00 6 7 mph 1008.2mb 54f 56f
7:36 2 5 mph 1008.4mb 54f 56f
7:30 3 5 mph 1008.3mb 54f 56f
7:24 2 5 mph 1008.3mb 54f 56f
7:18  -  2 mph 1008.2mb 54f 58f
7:12  -  2 mph 1008.2mb 54f 56f
7:06  -  1 mph 1008.2mb 55f 56f
7:00  -  2 mph 1008.1mb 55f 55f
6:36 1 3 mph 1007.9mb 54f 55f
6:30 1 3 mph 1007.9mb 54f 55f
6:24  -  1 mph 1007.9mb 54f 55f
6:18  -  2 mph 1007.8mb 54f 54f
6:12 1 3 mph 1007.8mb 54f 54f
6:06 1 2 mph 1007.8mb 54f 54f
6:00 2 3 mph 1007.8mb 54f 54f
5:36 2 3 mph 1007.7mb 54f 55f
5:30 2 3 mph 1007.7mb 54f 55f
5:24 2 5 mph 1007.6mb 55f 55f
5:18 3 6 mph 1007.5mb 55f 55f
5:12 6 7 mph 1007.4mb 55f 55f
5:06 6 7 mph 1007.4mb 55f 54f
5:00 8 10 mph 1007.5mb 55f 54f
4:36 3 5 mph 1007.7mb 55f 55f
4:30 3 5 mph 1007.7mb 55f 55f
4:24 2 6 mph 1007.8mb 55f 55f
4:18 2 9 mph 1007.9mb 55f 55f
4:12 3 7 mph 1007.9mb 55f 55f
4:06 6 7 mph 1007.9mb 55f 55f
4:00 5 7 mph 1007.9mb 55f 55f
3:36 5 7 mph 1007.6mb 55f 56f
3:30 6 8 mph 1007.7mb 55f 56f
3:24 6 7 mph 1007.7mb 55f 56f
3:18 5 6 mph 1007.7mb 55f 56f
3:12 3 5 mph 1007.7mb 55f 57f
3:06 2 3 mph 1007.6mb 55f 56f
3:00 1 3 mph 1007.6mb 55f 57f
2:36  -  1 mph 1007.5mb 55f 57f
2:30  -  mph 1007.5mb 55f 56f
2:24  -  mph 1007.6mb 55f 56f
2:18  -  3 mph 1007.6mb 55f 56f
2:12 2 3 mph 1007.6mb 55f 56f
2:06 1 2 mph 1007.6mb 55f 57f
2:00 1 2 mph 1007.6mb 55f 56f
1:36  -  2 mph 1007.8mb 55f 58f
1:30 1 3 mph 1007.8mb 55f 57f
1:24 1 5 mph 1007.8mb 55f 56f
1:18 5 6 mph 1007.9mb 55f 56f
1:12 2 3 mph 1007.9mb 55f 58f
1:06  -  1 mph 1007.9mb 55f 58f
1:00 1 2 mph 1007.9mb 55f 57f
12:36  -  2 mph 1008.1mb 55f 57f
12:30 1 2 mph 1008mb 55f 57f
12:24  -  2 mph 1008mb 55f 58f
12:18  -  2 mph 1008.1mb 55f 58f
12:12  -  2 mph 1008.1mb 55f 57f
12:06 2
mph
1008.2mb 55f 57f
12:00 2
mph
1008.2mb 55f 57f
Sex 08/26 11:36  -  2 mph 1008.2mb 55f 58f
11:30 1 2 mph 1008.2mb 55f 58f
11:24  -  2 mph 1008.2mb 55f 58f
11:18  -  1 mph 1008.2mb 55f 58f
11:12 1 2 mph 1008.3mb 55f 58f
11:06  -  3 mph 1008.3mb 55f 57f
11:00 3 5 mph 1008.3mb 55f 57f
10:36 3 5 mph 1008.5mb 55f 58f
10:30 3 5 mph 1008.4mb 55f 59f
10:24 5
mph
1008.4mb 55f 59f
10:18 5 6 mph 1008.5mb 55f 59f
10:12 5
mph
1008.6mb 55f 59f
10:06 5 6 mph 1008.6mb 55f 59f
10:00 6 7 mph 1008.6mb 55f 59f
9:36 6
mph
1008.8mb 55f 60f
9:30 1 3 mph 1008.9mb 55f 60f
9:24 1 2 mph 1008.8mb 55f 60f
9:18  -  2 mph 1008.8mb 55f 60f
9:12  -  2 mph 1008.8mb 55f 60f
9:06  -  1 mph 1008.8mb 55f 61f
9:00 1 3 mph 1008.9mb 55f 61f
8:36 2 5 mph 1008.8mb 55f 63f
8:30 2 3 mph 1008.7mb 55f 64f
8:24 3 6 mph 1008.7mb 55f 64f
8:18 6 8 mph 1008.6mb 55f 65f
8:12 8 10 mph 1008.6mb 55f 65f
8:06 7 8 mph 1008.6mb 55f 66f
8:00 6 8 mph 1008.7mb 55f 67f
7:36 9 11 mph 1008.8mb 55f 69f
7:30 5 7 mph 1008.9mb 54f 68f
7:24 5 7 mph 1008.9mb 54f 71f
7:18 3 5 mph 1008.9mb 55f 70f
7:12 2 5 mph 1008.9mb 55f 70f
7:06 5 6 mph 1008.9mb 55f 70f
7:00 6 8 mph 1009mb 55f 70f
6:36 8 10 mph 1009.1mb 55f 72f
6:30 7 9 mph 1009.2mb 55f 72f
6:24 1 3 mph 1009.3mb 55f 76f
6:18 1 3 mph 1009.3mb 55f 76f
6:12 1 3 mph 1009.4mb 55f 77f
6:06 2 3 mph 1009.4mb 55f 77f
6:00 1 3 mph 1009.5mb 55f 78f
5:36  -  3 mph 1009.9mb 54f 77f
5:30 1 3 mph 1009.9mb 54f 78f
5:24 1 2 mph 1009.9mb 54f 79f
5:18 2 3 mph 1010mb 54f 79f
5:12 1 2 mph 1010mb 54f 78f
5:06  -  3 mph 1010.1mb 54f 75f
5:00  -  3 mph 1010.1mb 54f 74f
4:36 1 3 mph 1010.4mb 54f 80f
4:30 2
mph
1010.5mb 54f 80f
4:24  -  2 mph 1010.6mb 55f 79f
4:18 2 5 mph 1010.6mb 55f 78f
4:12 1 6 mph 1010.6mb 55f 75f
4:06 3 6 mph 1010.8mb 55f 76f
4:00 1 3 mph 1010.8mb 55f 77f
3:36 1 2 mph 1011.1mb 54f 76f
3:30 1 3 mph 1011.2mb 54f 76f
3:24 2 3 mph 1011.2mb 54f 76f
3:18 2
mph
1011.3mb 54f 76f
3:12 1 3 mph 1011.4mb 54f 75f
3:06 1 3 mph 1011.4mb 53f 78f
3:00  -  5 mph 1011.5mb 53f 76f
2:36 5 6 mph 1011.8mb 53f 76f
2:30 3 5 mph 1011.8mb 53f 76f
2:24 2 3 mph 1011.9mb 53f 74f
2:18 1 3 mph 1012mb 53f 69f
2:12 2 3 mph 1012mb 53f 72f
2:06 2 3 mph 1012mb 53f 70f
2:00 3
mph
1012.1mb 53f 67f
1:36 1 2 mph 1012.4mb 53f 73f
1:30 2 3 mph 1012.4mb 53f 71f
1:24 2 3 mph 1012.5mb 53f 69f
1:18 3
mph
1012.5mb 53f 64f
1:12 3
mph
1012.6mb 53f 65f
1:06 3
mph
1012.6mb 53f 65f
1:00 3
mph
1012.7mb 53f 73f
12:36 3 5 mph 1013mb 53f 73f
12:30 3
mph
1013.1mb 53f 74f
12:24 2 5 mph 1013.2mb 53f 74f
12:18 3 5 mph 1013.2mb 53f 73f
12:12 2 6 mph 1013.3mb 53f 73f
12:06 3 6 mph 1013.3mb 53f 73f
12:00 5 6 mph 1013.3mb 53f 73f
11:36 2
mph
1013.4mb 53f 66f
11:30 1 3 mph 1013.5mb 53f 65f
11:24 2 3 mph 1013.5mb 53f 63f
11:18 1 2 mph 1013.6mb 53f 65f
11:12  -  1 mph 1013.6mb 53f 66f
11:06  -  2 mph 1013.6mb 53f 66f
11:00 3
mph
1013.6mb 53f 64f
10:54 2 3 mph 1013.7mb 53f 64f
10:48 2 5 mph 1013.7mb 53f 64f
10:36 2 3 mph 1013.7mb 53f 63f
10:30 3 5 mph 1013.7mb 53f 60f
10:24 3 5 mph 1013.8mb 53f 60f
10:18 3
mph
1013.8mb 53f 61f
10:12 2
mph
1013.8mb 54f 63f
10:06  -  2 mph 1013.9mb 54f 64f
10:00 2
mph
1013.9mb 55f 62f
9:54  -  2 mph 1014mb 55f 63f
9:48  -  2 mph 1014.1mb 55f 61f
9:36 2
mph
1014.1mb 55f 59f
9:30 2 3 mph 1014.1mb 54f 59f
9:24  -  2 mph 1014.2mb 54f 62f
9:18  -  1 mph 1014.2mb 54f 63f
9:12  -  1 mph 1014.3mb 54f 63f
9:06  -  2 mph 1014.3mb 54f 63f
9:00 1 2 mph 1014.4mb 54f 62f
8:54  -  1 mph 1014.4mb 54f 61f
8:48  -  1 mph 1014.6mb 54f 60f
8:36  -  2 mph 1014.5mb 54f 59f
8:30 2 3 mph 1014.5mb 54f 59f
8:24  -  2 mph 1014.6mb 54f 63f
8:18  -  1 mph 1014.6mb 54f 63f
8:12  -  2 mph 1014.6mb 54f 62f
8:06  -  1 mph 1014.6mb 54f 61f
8:00  -  1 mph 1014.6mb 54f 61f
7:36 2
mph
1014.5mb 54f 59f
7:30  -  2 mph 1014.5mb 54f 59f
7:24 2
mph
1014.4mb 54f 59f
7:18  -  1 mph 1014.4mb 54f 61f
7:12  -  1 mph 1014.4mb 54f 60f
7:06 1 2 mph 1014.4mb 54f 60f
7:00  -  2 mph 1014.4mb 54f 60f
6:54 1 2 mph 1014.4mb 54f 60f
6:48  -  1 mph 1014.4mb 54f 59f
6:36  -  2 mph 1014.4mb 54f 57f
6:30 2 3 mph 1014.4mb 54f 57f
6:24 1 2 mph 1014.4mb 54f 57f
6:18  -  2 mph 1014.4mb 54f 57f
6:12  -  1 mph 1014.4mb 54f 57f
6:06  -  2 mph 1014.4mb 54f 57f
6:00 1
mph
1014.4mb 54f 57f
5:54  -  1 mph 1014.3mb 54f 58f
5:48  -  2 mph 1014.3mb 54f 57f
5:36 2 3 mph 1014.2mb 54f 57f
5:30  -  2 mph 1014.2mb 55f 57f
5:24 1 3 mph 1014.1mb 55f 58f
5:18 1 2 mph 1014.2mb 55f 58f
5:12 2
mph
1014.2mb 55f 58f
5:06  -  1 mph 1014.2mb 55f 58f
5:00  -  1 mph 1014.3mb 55f 57f
4:54 2 3 mph 1014.3mb 55f 57f
4:48 3
mph
1014.3mb 55f 56f
4:36  -  1 mph 1014.2mb 55f 57f
4:30  -  mph 1014.2mb 55f 58f
4:24  -  mph 1014.2mb 55f 58f
4:18  -  mph 1014.2mb 55f 58f
4:12  -  2 mph 1014.2mb 55f 58f
4:06  -  1 mph 1014.2mb 55f 58f
4:00  -  1 mph 1014.2mb 55f 58f
3:54 2
mph
1014.1mb 55f 58f
3:48  -  2 mph 1014.1mb 55f 58f
3:36 2
mph
1014.2mb 55f 58f
3:30  -  1 mph 1014.2mb 55f 58f
3:24  -  1 mph 1014.3mb 55f 58f
3:18  -  1 mph 1014.5mb 55f 58f
3:12  -  1 mph 1014.5mb 55f 58f
3:06 2 3 mph 1014.5mb 55f 59f
3:00 2 3 mph 1014.5mb 55f 59f
2:54 3 5 mph 1014.5mb 55f 60f
2:48 2 3 mph 1014.4mb 55f 60f
2:36 1 2 mph 1014.4mb 55f 58f
2:30 1 2 mph 1014.3mb 55f 58f
2:24  -  1 mph 1014.4mb 55f 58f
2:18  -  1 mph 1014.4mb 55f 59f
2:12  -  2 mph 1014.3mb 55f 60f
2:06 2 3 mph 1014.4mb 55f 59f
2:00 3
mph
1014.4mb 55f 58f
1:54 1 3 mph 1014.3mb 55f 58f
1:48 2 3 mph 1014.4mb 55f 59f
1:36 1 3 mph 1014.6mb 55f 60f
1:30 2
mph
1014.6mb 55f 59f
1:24 1 3 mph 1014.7mb 55f 60f
1:18  -  1 mph 1014.6mb 55f 60f
1:12  -  2 mph 1014.7mb 55f 61f
1:06  -  2 mph 1014.8mb 55f 60f
1:00  -  3 mph 1014.8mb 55f 60f
12:54  -  3 mph 1014.8mb 55f 60f
12:48  -  2 mph 1014.8mb 55f 60f
12:36 1 2 mph 1014.7mb 55f 61f
12:30  -  mph 1014.7mb 55f 60f
12:24  -  mph 1014.7mb 55f 61f
12:18  -  mph 1014.7mb 55f 61f
12:12  -  1 mph 1014.6mb 55f 62f
12:06  -  1 mph 1014.6mb 54f 62f
12:00  -  3 mph 1014.6mb 54f 62f
Qui 08/25 11:54 3 5 mph 1014.6mb 54f 62f
11:48 3 5 mph 1014.6mb 54f 62f
11:36 3
mph
1014.5mb 54f 63f
11:30 1 3 mph 1014.6mb 54f 61f
11:24 3
mph
1014.6mb 54f 62f
11:18  -  3 mph 1014.6mb 54f 63f
11:12  -  2 mph 1014.5mb 54f 63f
11:06  -  1 mph 1014.5mb 54f 64f
11:00  -  1 mph 1014.6mb 54f 65f
10:54 1 3 mph 1014.6mb 54f 63f
10:48 2 3 mph 1014.5mb 55f 65f
10:36 1 3 mph 1014.4mb 55f 65f
10:30 1 3 mph 1014.4mb 55f 65f
10:24 3 5 mph 1014.5mb 55f 64f
10:18 2 5 mph 1014.5mb 55f 63f
10:12 2 5 mph 1014.6mb 55f 63f
10:06  -  3 mph 1014.7mb 55f 62f
10:00 2 5 mph 1014.6mb 55f 64f
9:54 1 5 mph 1014.7mb 55f 64f
9:48 2 3 mph 1014.7mb 55f 63f
9:36  -  3 mph 1014.8mb 55f 65f
9:30 1 2 mph 1014.8mb 55f 65f
9:24  -  3 mph 1014.8mb 55f 64f
9:18 2 3 mph 1014.8mb 55f 64f
9:12 1 2 mph 1014.8mb 55f 64f
9:06 1 2 mph 1014.9mb 55f 64f
9:00  -  1 mph 1014.8mb 55f 64f
8:54  -  1 mph 1014.9mb 55f 65f
8:48 1 2 mph 1014.8mb 55f 66f
8:36  -  mph 1014.9mb 55f 67f
8:30  -  2 mph 1014.8mb 55f 67f
8:24  -  1 mph 1014.8mb 55f 67f
8:18  -  mph 1014.8mb 55f 66f
8:12  -  1 mph 1014.7mb 55f 67f
8:06 2
mph
1014.7mb 55f 67f
8:00 1 2 mph 1014.8mb 55f 67f
7:54  -  1 mph 1014.9mb 55f 67f
7:48  -  mph 1014.8mb 55f 68f
7:36  -  2 mph 1014.9mb 55f 69f
7:30 1 2 mph 1014.8mb 55f 70f
7:24  -  mph 1014.8mb 55f 74f
7:18  -  1 mph 1014.8mb 55f 74f
7:12  -  2 mph 1014.8mb 55f 73f
7:06 1 2 mph 1014.8mb 55f 72f
7:00 1 2 mph 1014.8mb 55f 75f
6:54  -  1 mph 1014.8mb 55f 75f
6:48 1 2 mph 1014.8mb 55f 75f
6:36  -  2 mph 1014.9mb 55f 78f
6:30  -  2 mph 1014.9mb 55f 80f
6:24 1 5 mph 1015mb 55f 82f
6:18 2 3 mph 1015.1mb 55f 82f
6:12 2 5 mph 1015.1mb 55f 80f
6:06 3 6 mph 1015.3mb 55f 82f
6:00 3 6 mph 1015.4mb 55f 82f
5:54 3 6 mph 1015.5mb 55f 82f
5:48 2 6 mph 1015.5mb 55f 83f
5:36 1 5 mph 1015.6mb 55f 83f
5:30 2 5 mph 1015.7mb 55f 82f
5:24 2 5 mph 1015.8mb 55f 82f
5:18 2 6 mph 1015.8mb 55f 81f
5:12 3 7 mph 1015.9mb 55f 81f
5:06 5 7 mph 1015.9mb 55f 81f
5:00 5 7 mph 1016mb 55f 81f
4:54 6 9 mph 1016.1mb 55f 80f
4:48 6 9 mph 1016.1mb 55f 81f
4:36 3 6 mph 1016.2mb 55f 81f
4:30 5 9 mph 1016.3mb 55f 80f
4:24 5 8 mph 1016.3mb 55f 80f
4:18 5 8 mph 1016.4mb 55f 80f
4:12 5 8 mph 1016.5mb 55f 80f
4:06 6 9 mph 1016.6mb 55f 80f
4:00 6 10 mph 1016.7mb 55f 80f
3:36 5 8 mph 1016.9mb 55f 80f
3:30 5 8 mph 1017mb 55f 80f
3:24 3 7 mph 1017.1mb 55f 81f
3:18 5 7 mph 1017.2mb 54f 80f
3:12 5 9 mph 1017.3mb 54f 80f
3:06 6 8 mph 1017.4mb 54f 80f
3:00 2 8 mph 1017.5mb 54f 80f
2:54 3 8 mph 1017.5mb 54f 80f
2:48 3 8 mph 1017.6mb 54f 80f
2:36 3 7 mph 1017.8mb 54f 79f
2:30 2 7 mph 1017.9mb 54f 79f
2:24 6 9 mph 1018mb 54f 78f
2:18 3 7 mph 1018.1mb 54f 78f
2:12 3 7 mph 1018.2mb 53f 78f
2:06 3 6 mph 1018.3mb 53f 78f
2:00 2 7 mph 1018.4mb 53f 78f
1:54 3 7 mph 1018.5mb 53f 78f
1:48 2 6 mph 1018.6mb 53f 77f
1:36 6 8 mph 1018.7mb 53f 77f
1:30 2 6 mph 1018.7mb 53f 77f
1:24 2 6 mph 1018.8mb 53f 77f
1:18 1 6 mph 1018.9mb 53f 77f
1:12 2 7 mph 1018.9mb 53f 77f
1:06 5 7 mph 1018.9mb 53f 76f
1:00 5 8 mph 1019mb 53f 76f
12:54 3 8 mph 1019.1mb 53f 77f
12:48 3 9 mph 1019.2mb 53f 77f
12:36 7 10 mph 1019.2mb 53f 76f
12:30 6 9 mph 1019.3mb 53f 76f
12:24 6 11 mph 1019.4mb 53f 75f
12:18 3 9 mph 1019.5mb 53f 76f
12:12 6 9 mph 1019.5mb 53f 75f
12:06 5 7 mph 1019.6mb 53f 75f
12:00 2 6 mph 1019.6mb 53f 75f
11:54 1 7 mph 1019.7mb 53f 75f
11:48 6 8 mph 1019.8mb 53f 75f
11:36 1 8 mph 1019.9mb 53f 76f
11:30 2 5 mph 1019.9mb 53f 75f
11:24 2 8 mph 1020.1mb 53f 74f
11:18 5 9 mph 1020.1mb 53f 74f
11:12 6 10 mph 1020mb 53f 73f
11:06 5 10 mph 1020.1mb 53f 74f
11:00 5 9 mph 1020.2mb 53f 73f
10:54 7 10 mph 1020.2mb 53f 73f
10:48 8 13 mph 1020.3mb 53f 73f
10:36 7 10 mph 1020.3mb 53f 73f
10:30 6 11 mph 1020.4mb 53f 72f
10:24 5 9 mph 1020.4mb 53f 72f
10:18 5 8 mph 1020.5mb 53f 72f
10:12 6 9 mph 1020.5mb 53f 72f
10:06 3 7 mph 1020.5mb 53f 72f
10:00 2 7 mph 1020.6mb 53f 72f
9:54 1 7 mph 1020.6mb 53f 73f
9:48 3 6 mph 1020.6mb 53f 72f
9:36 2 9 mph 1020.8mb 53f 72f
9:30 5 9 mph 1020.9mb 53f 72f
9:24 6 10 mph 1020.9mb 53f 71f
9:18 3 7 mph 1020.9mb 53f 71f
9:12 1 6 mph 1020.9mb 53f 71f
9:06 2 6 mph 1020.9mb 54f 71f
9:00 2 7 mph 1020.9mb 54f 71f
8:36 2 6 mph 1020.9mb 54f 70f
8:30 2 5 mph 1020.8mb 54f 69f
8:24 2 5 mph 1020.9mb 54f 69f
8:18 1 6 mph 1020.9mb 54f 69f
8:12 1 6 mph 1020.8mb 54f 69f
8:06 2 5 mph 1020.8mb 54f 68f
8:00  -  5 mph 1020.7mb 54f 67f
7:54 2 6 mph 1020.7mb 54f 66f
7:48 5 6 mph 1020.7mb 54f 65f
7:36 1 3 mph 1020.8mb 54f 65f
7:30 1 3 mph 1020.9mb 54f 64f
7:24 2 3 mph 1020.9mb 54f 62f
7:18 2 5 mph 1021mb 54f 61f
7:12 3 5 mph 1021mb 54f 61f
7:06 5
mph
1021mb 54f 60f
7:00  -  2 mph 1021mb 54f 65f
6:54  -  2 mph 1020.9mb 54f 63f
6:48  -  2 mph 1020.9mb 54f 62f
6:36  -  1 mph 1020.9mb 54f 63f
6:30  -  2 mph 1020.9mb 54f 62f
6:24  -  2 mph 1020.9mb 54f 60f
6:18  -  5 mph 1020.9mb 54f 59f
6:12 2 5 mph 1020.9mb 54f 57f
6:06 2 3 mph 1020.8mb 54f 58f
6:00 2
mph
1020.8mb 54f 58f
5:54  -  2 mph 1020.8mb 54f 58f
5:48  -  2 mph 1020.7mb 54f 58f
5:36  -  3 mph 1020.6mb 54f 58f
5:30 2
mph
1020.6mb 54f 58f
5:24  -  2 mph 1020.6mb 54f 60f
5:18 2 3 mph 1020.6mb 54f 59f
5:12 2 3 mph 1020.6mb 54f 59f
5:06  -  3 mph 1020.6mb 54f 60f
5:00 2 3 mph 1020.5mb 54f 62f
4:54 1 2 mph 1020.5mb 54f 61f
4:48 1 2 mph 1020.4mb 54f 61f
4:36  -  3 mph 1020.5mb 54f 58f
4:30 2 3 mph 1020.5mb 54f 57f
4:24  -  2 mph 1020.4mb 54f 57f
4:18  -  1 mph 1020.4mb 54f 57f
4:12 1 2 mph 1020.5mb 54f 58f
4:06  -  1 mph 1020.6mb 54f 58f
4:00 1 2 mph 1020.6mb 54f 58f
3:54 1 3 mph 1020.7mb 54f 59f
3:48 2 3 mph 1020.7mb 54f 58f
3:36 1 3 mph 1020.7mb 54f 58f
3:30 2 3 mph 1020.7mb 54f 58f
3:24  -  2 mph 1020.7mb 54f 58f
3:18  -  1 mph 1020.7mb 54f 58f
3:12 2 3 mph 1020.6mb 54f 58f
3:06 2 5 mph 1020.7mb 54f 57f
3:00 1 2 mph 1020.6mb 54f 58f
2:54  -  3 mph 1020.7mb 54f 58f
2:48 3 6 mph 1020.7mb 54f 58f
2:36 2 3 mph 1020.5mb 54f 58f
2:30  -  1 mph 1020.5mb 54f 58f
2:24  -  2 mph 1020.5mb 54f 58f
2:18 2 5 mph 1020.5mb 54f 58f
2:12 2 3 mph 1020.4mb 54f 58f
2:06 3
mph
1020.4mb 54f 57f
2:00 2 6 mph 1020.5mb 54f 57f
1:54 3 6 mph 1020.6mb 54f 57f
1:48 1 5 mph 1020.6mb 54f 60f
1:36 3 5 mph 1020.7mb 53f 58f
1:30 2 3 mph 1020.8mb 53f 60f
1:24 3
mph
1020.8mb 53f 58f
1:18  -  2 mph 1020.8mb 53f 60f
1:12  -  2 mph 1020.7mb 53f 61f
1:06  -  2 mph 1020.7mb 53f 60f
1:00 2 3 mph 1020.7mb 53f 59f
12:54 1
mph
1020.6mb 53f 61f
12:48  -  1 mph 1020.7mb 53f 61f
12:36 1 2 mph 1020.7mb 53f 59f
12:30  -  1 mph 1020.7mb 53f 60f
12:24 1 2 mph 1020.6mb 53f 61f
12:18 2
mph
1020.6mb 53f 61f
12:12 2 3 mph 1020.6mb 53f 62f
12:06 1 3 mph 1020.6mb 53f 63f
12:00 3 5 mph 1020.6mb 53f 62f
Qua 08/24 11:54 3 5 mph 1020.6mb 53f 60f
11:48 1 2 mph 1020.5mb 53f 63f
11:36  -  1 mph 1020.6mb 53f 63f
11:30 2 5 mph 1020.5mb 53f 63f
11:24 3 5 mph 1020.4mb 53f 61f
11:18 2 3 mph 1020.4mb 53f 62f
11:12 1 3 mph 1020.4mb 53f 61f
11:06  -  1 mph 1020.5mb 53f 62f
11:00  -  mph 1020.5mb 53f 63f
10:54  -  1 mph 1020.5mb 53f 63f
10:48  -  1 mph 1020.4mb 53f 63f
10:36 2 3 mph 1020.4mb 53f 62f
10:30  -  1 mph 1020.5mb 53f 62f
10:24 1 2 mph 1020.6mb 53f 61f
10:18  -  2 mph 1020.5mb 53f 62f
10:12  -  1 mph 1020.5mb 53f 62f
10:06  -  1 mph 1020.6mb 53f 66f
10:00 1 2 mph 1020.6mb 53f 66f
9:54  -  1 mph 1020.6mb 53f 64f
9:48 2 3 mph 1020.6mb 53f 64f
9:36 2
mph
1020.7mb 53f 65f
9:30  -  2 mph 1020.7mb 53f 65f
9:24  -  1 mph 1020.7mb 53f 64f
9:18  -  2 mph 1020.6mb 53f 65f
9:12 1 2 mph 1020.6mb 53f 66f
9:06  -  2 mph 1020.7mb 54f 67f
9:00  -  2 mph 1020.7mb 54f 68f
8:54 2
mph
1020.7mb 54f 67f
8:48  -  2 mph 1020.7mb 54f 68f
8:36  -  mph 1020.6mb 54f 68f
8:30  -  1 mph 1020.6mb 54f 68f
8:24  -  3 mph 1020.6mb 54f 67f
8:18 2 5 mph 1020.6mb 54f 68f
8:12 2 3 mph 1020.5mb 54f 69f
8:06 1 2 mph 1020.5mb 54f 69f
8:00  -  2 mph 1020.5mb 54f 71f
7:54  -  1 mph 1020.5mb 54f 69f
7:48 1 2 mph 1020.6mb 54f 66f
7:36 2 3 mph 1020.6mb 54f 68f
7:30  -  2 mph 1020.6mb 54f 67f
7:24  -  2 mph 1020.5mb 54f 69f
7:18  -  2 mph 1020.5mb 54f 69f
7:12  -  1 mph 1020.6mb 54f 69f
7:06  -  2 mph 1020.6mb 54f 70f
7:00 1 3 mph 1020.5mb 54f 68f
6:54 1 2 mph 1020.6mb 54f 70f
6:48 1 2 mph 1020.6mb 54f 74f
6:36  -  5 mph 1020.6mb 54f 79f
6:30  -  2 mph 1020.7mb 54f 78f
6:24  -  5 mph 1020.7mb 54f 78f
6:18 2 5 mph 1020.7mb 54f 78f
6:12 1 5 mph 1020.8mb 54f 78f
6:06 2 5 mph 1020.8mb 54f 78f
6:00 2 5 mph 1020.8mb 54f 80f
5:54 2 5 mph 1020.8mb 54f 80f
5:48  -  3 mph 1020.8mb 54f 79f
5:36 2 6 mph 1021mb 54f 79f
5:30 2 6 mph 1021.2mb 54f 79f
5:24 1 5 mph 1021.2mb 54f 79f
5:18 2 6 mph 1021.2mb 54f 80f
5:12 2 5 mph 1021.3mb 54f 80f
5:06 2 7 mph 1021.3mb 54f 79f
5:00 2 7 mph 1021.4mb 54f 79f
4:54 2 10 mph 1021.3mb 54f 79f
4:48 6 8 mph 1021.4mb 54f 79f
4:36 5 8 mph 1021.7mb 54f 78f
4:30 2 5 mph 1021.8mb 54f 79f
4:24 3 8 mph 1021.8mb 54f 78f
4:18 5 6 mph 1021.8mb 54f 77f
4:12 5 6 mph 1021.8mb 54f 77f
4:06 3 7 mph 1021.9mb 54f 77f
4:00 2 6 mph 1021.9mb 54f 77f
3:54 2 8 mph 1022mb 54f 76f
3:48 6 8 mph 1022.1mb 54f 76f
3:36 6 8 mph 1022.2mb 54f 76f
3:30 3 7 mph 1022.3mb 54f 76f
3:24 2 7 mph 1022.3mb 54f 76f
3:18 2 5 mph 1022.3mb 54f 76f
3:12 3 6 mph 1022.4mb 54f 76f
3:06 5 8 mph 1022.4mb 54f 76f
3:00 6 9 mph 1022.5mb 54f 75f
2:54 5 6 mph 1022.6mb 54f 76f
2:48 5 9 mph 1022.6mb 54f 75f
2:36 3 8 mph 1022.8mb 54f 75f
2:30 3 10 mph 1022.8mb 54f 76f
2:24 6 8 mph 1022.9mb 54f 75f
2:18 2 8 mph 1023mb 54f 75f
2:12 2 7 mph 1023.1mb 54f 75f
2:06 3 8 mph 1023.1mb 54f 74f
2:00 5 8 mph 1023.2mb 54f 74f
1:54 3 9 mph 1023.3mb 54f 74f
1:48 6 9 mph 1023.4mb 54f 74f
1:36 3 6 mph 1023.5mb 54f 73f
1:30 2 6 mph 1023.6mb 53f 73f
1:24 2 8 mph 1023.7mb 53f 73f
1:18 2 6 mph 1023.8mb 53f 73f
1:12 1 6 mph 1023.8mb 53f 73f
1:06 3 8 mph 1023.8mb 53f 71f
1:00 6 10 mph 1023.9mb 53f 71f
12:54 2 6 mph 1023.9mb 53f 71f
12:48 3 7 mph 1023.9mb 53f 71f
12:36 2 6 mph 1024mb 53f 70f
12:30 3 8 mph 1024.1mb 53f 70f
12:24 2 6 mph 1024.1mb 53f 70f
12:18 3 8 mph 1024.1mb 53f 69f
12:12 3 8 mph 1024.2mb 53f 69f
12:06 2 6 mph 1024.2mb 53f 69f
12:00 5 9 mph - - 69f
11:54 3 8 mph - - 70f
11:48 5 9 mph - - 69f
11:36 6 9 mph 1024.5mb 53f 68f
11:30 3 8 mph 1024.5mb 53f 69f
11:24 3 10 mph 1024.5mb 53f 68f
11:18 3 7 mph 1024.6mb 53f 68f
11:12 3 9 mph 1024.7mb 53f 68f
11:06 3 11 mph 1024.7mb 53f 68f
11:00 2 8 mph - - 68f
10:36 5 8 mph 1024.8mb 53f 68f
10:30 6 10 mph 1024.8mb 53f 68f
10:24 5 10 mph 1024.8mb 53f 68f
10:18 3 9 mph 1024.9mb 53f 68f
10:12 3 9 mph 1024.8mb 53f 68f
10:06 3 8 mph 1024.9mb 53f 67f
10:00 3 9 mph 1024.9mb 53f 67f
9:54 5 9 mph - - 67f
9:36 6 10 mph 1024.7mb 53f 67f
9:30 5 9 mph 1024.7mb 53f 67f
9:24 6 10 mph 1024.7mb 53f 67f
9:18 7 15 mph 1024.7mb 53f 66f
9:12 7 14 mph 1024.7mb 53f 66f
9:06 5 11 mph - - 67f
9:00 5 9 mph 1024.6mb 53f 67f
8:54 6 11 mph 1024.7mb 53f 67f
8:48 6 10 mph 1024.7mb 53f 67f
8:36 7 11 mph - - 66f
8:30 6 15 mph 1024.5mb 53f 66f
8:24 8 13 mph - - 66f
8:18 7 13 mph 1024.6mb 53f 66f
8:12 6 14 mph 1024.6mb 53f 66f
8:06 7 14 mph 1024.6mb 53f 65f
8:00 8 10 mph 1024.5mb 53f 65f
7:54 7 14 mph 1024.4mb 53f 65f
7:48 8 13 mph 1024.4mb 53f 65f
7:36 7 11 mph - - 65f
7:30 7 11 mph 1024.4mb 53f 65f
7:24 7 13 mph 1024.3mb 53f 64f
7:18 7 13 mph 1024.3mb 53f 64f
7:12 8 14 mph 1024.3mb 53f 64f
7:06 6 11 mph 1024.2mb 53f 64f
7:00 6 11 mph 1024.2mb 53f 64f
6:54 5 8 mph 1024.2mb 53f 64f
6:48 3 8 mph 1024.2mb 53f 64f
6:36 1 3 mph 1024.1mb 53f 64f
6:30 1 10 mph 1024mb 53f 63f
6:24  -  6 mph 1024mb 53f 63f
6:18 2 3 mph 1024mb 53f 63f
6:12 2 5 mph 1024mb 53f 63f
6:06 2 3 mph 1023.9mb 53f 63f
6:00 1 5 mph 1023.9mb 53f 63f
5:54 2 5 mph 1023.8mb 53f 63f
5:48 2 8 mph 1023.7mb 53f 63f
5:36 3 8 mph 1023.6mb 53f 64f
5:30 1 8 mph 1023.6mb 53f 63f
5:24 3 10 mph 1023.5mb 53f 63f
5:18 5 9 mph 1023.5mb 53f 63f
5:12 3 8 mph 1023.5mb 53f 63f
5:06 2 7 mph 1023.5mb 53f 63f
5:00 2 7 mph 1023.5mb 53f 63f
4:54 5 8 mph 1023.4mb 53f 64f
4:48 6 10 mph 1023.4mb 53f 64f
4:36 3 7 mph 1023.3mb 53f 63f
4:30 5 9 mph 1023.3mb 53f 63f
4:24 1 5 mph 1023.3mb 53f 62f
4:18 2 5 mph 1023.3mb 53f 61f
4:12  -  1 mph 1023.4mb 53f 59f
4:06  -  5 mph 1023.4mb 53f 59f
4:00 3 7 mph 1023.3mb 53f 58f
3:54 2 3 mph 1023.2mb 53f 58f
3:48 2 5 mph 1023.2mb 53f 59f
3:36  -  3 mph 1023.2mb 53f 57f
3:30  -  2 mph 1023.1mb 53f 55f
3:24  -  2 mph 1023.1mb 53f 55f
3:18  -  1 mph 1023mb 53f 54f
3:12  -  1 mph 1023mb 53f 54f
3:06  -  1 mph 1023mb 53f 54f
3:00 1 2 mph 1022.9mb 53f 54f
2:54  -  mph 1022.9mb 53f 54f
2:48  -  1 mph 1022.9mb 53f 54f
2:36  -  2 mph 1022.8mb 53f 54f
2:30 1 2 mph 1022.8mb 53f 54f
2:24  -  1 mph 1022.8mb 53f 54f
2:18  -  1 mph 1022.9mb 53f 54f
2:12 1 3 mph 1022.8mb 53f 54f
2:06 2
mph
1022.9mb 53f 55f
2:00 2
mph
1022.9mb 53f 55f
1:54 1 2 mph 1022.9mb 53f 55f
1:48  -  mph 1022.9mb 53f 55f
1:36  -  1 mph 1022.8mb 53f 55f
1:30  -  mph 1022.7mb 53f 55f
1:24  -  mph 1022.7mb 53f 55f
1:18  -  2 mph 1022.7mb 53f 55f
1:12 1 2 mph 1022.7mb 53f 55f
1:06  -  1 mph 1022.8mb 53f 55f
1:00  -  1 mph 1022.8mb 53f 56f
12:54 1 2 mph 1022.8mb 53f 56f
12:48  -  1 mph 1022.7mb 53f 56f
12:36 2 3 mph 1022.7mb 53f 56f
12:30 1 2 mph 1022.7mb 53f 56f
12:24 2 3 mph 1022.7mb 53f 56f
12:18  -  3 mph 1022.6mb 53f 56f
12:12 2 3 mph 1022.6mb 53f 56f
12:06  -  2 mph 1022.6mb 53f 55f
12:00 2
mph
1022.6mb 53f 56f
Ter 08/23 11:54 3 5 mph 1022.5mb 53f 56f
11:48 5
mph
1022.6mb 53f 56f
11:36 2 3 mph 1022.6mb 53f 57f
11:30 2 3 mph 1022.7mb 53f 58f
11:24 2 3 mph 1022.7mb 53f 58f
11:18 2 5 mph 1022.6mb 53f 58f
11:12 1 3 mph 1022.6mb 53f 57f
11:06 2 3 mph 1022.6mb 53f 57f
11:00 2 5 mph 1022.6mb 53f 58f
10:54 3
mph
1022.5mb 53f 58f
10:48 1 2 mph 1022.4mb 53f 60f
10:36 3 5 mph 1022.4mb 53f 58f
10:30  -  3 mph 1022.4mb 53f 60f
10:24 1 3 mph 1022.4mb 53f 60f
10:18 2 3 mph 1022.3mb 53f 59f
10:12 2
mph
1022.3mb 53f 58f
10:06  -  2 mph 1022.3mb 53f 59f
10:00 2 3 mph 1022.2mb 53f 59f
9:54 1 2 mph 1022.2mb 53f 59f
9:48 1 2 mph 1022.2mb 53f 61f
9:36  -  2 mph 1022.1mb 53f 60f
9:30 1 2 mph 1022.1mb 53f 60f
9:24 1 2 mph 1022.1mb 53f 59f
9:18 1 2 mph 1022.1mb 53f 60f
9:12 2
mph
1022mb 53f 60f
9:06  -  mph 1022.1mb 53f 60f
9:00  -  mph 1022.1mb 53f 60f
8:54  -  1 mph 1022.1mb 53f 60f
8:48  -  1 mph 1022.1mb 53f 60f
8:36  -  1 mph 1022mb 53f 60f
8:30  -  1 mph 1021.9mb 53f 60f
8:24  -  2 mph 1021.8mb 53f 61f
8:18 1 2 mph 1021.8mb 53f 62f
8:12  -  2 mph 1021.7mb 53f 63f
8:06 1 3 mph 1021.7mb 53f 62f
8:00  -  1 mph 1021.8mb 53f 65f
7:54  -  2 mph 1021.7mb 53f 65f
7:48 1
mph
1021.7mb 53f 64f
7:36  -  1 mph 1021.6mb 53f 65f
7:30  -  2 mph 1021.6mb 53f 64f
7:24  -  2 mph 1021.6mb 53f 67f
7:18 1 3 mph 1021.6mb 53f 66f
7:12 1 2 mph 1021.6mb 53f 69f
7:06  -  mph 1021.5mb 53f 67f
7:00  -  1 mph 1021.5mb 53f 70f
6:54 1
mph
1021.5mb 54f 70f